Daneborg

KL  EN  DA
ASIAQ
Weather Now GREENLAND SURVEY
Updated [WGT/WGST] Temperature [°C] Wind [m/s] Air pressure [hPa] Relative humidity [%] Precipitation [mm]
Present Wind chill Speed Max
21.01 19:00-11,8-25,217,0 ⇓26,3100878n/a
21.01 18:00-11,9-24,213,4 ⇓20,6100881n/a
21.01 17:00-12,5-24,812,9 ⇓23,7100775n/a
21.01 16:00-13,3-27,116,5 ⇓25,7100779n/a
21.01 15:00-13,6-28,018,0 ⇓24,2100779n/a
21.01 14:00-14,3-28,918,0 ⇓22,7100677n/a
21.01 13:00-14,6-29,819,6 ⇓23,7100679n/a
21.01 12:00-15,2-30,218,0 ⇓22,7100578n/a
21.01 11:00-14,6-28,916,5 ⇓19,6100575n/a
21.01 10:00-14,5-27,312,4 ⇓20,1100571n/a
21.01 09:00-14,8-27,712,4 ⇓17,5100471n/a
21.01 08:00-15,2-28,412,9 ⇓19,0100471n/a
21.01 07:00-14,4-27,212,4 ⇓17,5100469n/a
21.01 06:00-15,3-27,710,8 ⇓16,0100368n/a
21.01 05:00-15,2-26,58,8 ⇓13,9100378n/a
21.01 04:00-17,7-31,111,3 ⇓18,5100374n/a
21.01 03:00-16,6-29,911,8 ⇓19,6100282n/a
21.01 02:00-16,7-30,512,9 ⇓20,6100275n/a
21.01 01:00-17,8-32,012,9 ⇓19,0100178n/a
21.01 00:00-18,0-32,613,9 ⇓23,7100179n/a
20.01 23:00-19,9-35,414,4 ⇓24,2100178n/a
20.01 22:00-18,7-35,419,0 ⇓28,8100078n/a
20.01 21:00-18,7-34,014,9 ⇓24,799984n/a
20.01 20:00-21,2-38,919,0 ⇓29,399777n/a
20.01 19:00-20,0-36,216,0 ⇓24,299980n/a
Position: (74.3075,-20.21694444)

[Back]